KARM

Wharton Regional Airport

Wharton, Texas, USA
METAR KARM 162155Z AUTO 00000KT 10SM CLR 19/05 A3027 RMK AO2 T01880052
Observed Flight Rules
Dec-16 @ 21:55 UTC (30 minutes ago) Visual Flight Rules
Visibility Clouds
10 miles
  • Clear skies
Temperatures Readings
Current 19°C / 66°F
Dewpoint 5°C / 41°F
Humidity 40%
Altimeter 30.27" Hg
Pressure 1025 hPa
Elevation 31
METAR KARM 162155Z AUTO 00000KT 10SM CLR 19/05 A3027 RMK AO2 T01880052
Observed Flight Rules
Dec-16 @ 21:55 UTC
(30 minutes ago)
VFR
Clouds
  • Clear skies
Temperature Dewpoint
19°C / 66°F 5°C / 41°F
Humidity Altimeter Pressure
40% 30.27" Hg 1025 hPa